LFRS Airport Information

Runway Information
Runway 03 Length 9514 ft width 148 ft
Elevation 73 ft Threshold 0 ft Heading 28
Runway 21 Length 9514 ft Width 148 ft
Elevation 86 ft Threshold 694 ft Heading 208
Airport Frequencies
Type APP Name APP Frequency 130.275 MHZ
Type ATIS Name ATIS Frequency 126.925 MHZ
Type GND Name GND Frequency 121.875 MHZ
Type INFO Name INFO Frequency 129.875 MHZ
Type TWR Name TWR Frequency 118.65 MHZ
Airport Navaids
Type NDB Name Nantes Frequency 369 KHZ
Type VOR-DME Name Nantes Frequency 115500 KHZ
Airport Weather Information & NOTAM
ADDS - METARS form results

(1211 UTC 21 September 2018)
Data provider http://aviationweather.gov/metar/data/
 
METAR text: LFRS 211200Z AUTO 29012KT 260V320 9999 BKN041 17/08 Q1020 NOSIG
Conditions at: LFRS (NANTES/CHATEAU B, FR) observed 1200 UTC 21 September 2018
Temperature: 17.0°C (63°F)
Dewpoint: 8.0°C (46°F) [RH = 55%]
Pressure (altimeter): 30.12 inches Hg (1020.0 mb)
Winds: from the WNW (290 degrees) at 14 MPH (12 knots; 6.2 m/s)
Visibility: 6 or more miles (10+ km)
Ceiling: 4100 feet AGL
Clouds: broken clouds at 4100 feet AGL
Weather: no significant weather observed at this time

METAR text: LFRS 211130Z AUTO 30009KT 260V340 9999 BKN040 BKN046 17/08 Q1019 NOSIG
Conditions at: LFRS (NANTES/CHATEAU B, FR) observed 1130 UTC 21 September 2018
Temperature: 17.0°C (63°F)
Dewpoint: 8.0°C (46°F) [RH = 55%]
Pressure (altimeter): 30.09 inches Hg (1019.0 mb)
Winds: from the WNW (300 degrees) at 10 MPH (9 knots; 4.6 m/s)
Visibility: 6 or more miles (10+ km)
Ceiling: 4000 feet AGL
Clouds: broken clouds at 4000 feet AGL
broken clouds at 4600 feet AGL
Weather: no significant weather observed at this time

Forecast for: LFRS (NANTES/CHATEAU B, FR)
Text: TAF LFRS 211100Z 2112/2218 30010KT 9999 SCT040
Forecast period: 1200 UTC 21 September 2018 to 0000 UTC 22 September 2018
Forecast type: FROM: standard forecast or significant change
Winds: from the WNW (300 degrees) at 12 MPH (10 knots; 5.1 m/s)
Visibility: 6 or more miles 10+ km)
Ceiling: at least 12,000 feet AGL
Clouds: scattered clouds at 4000 feet AGL
Weather: no significant weather forecast for this period
Text: BECMG 2200/2202 VRB03KT
Forecast period: 0000 to 1500 UTC 22 September 2018
Forecast type: BECOMING: Conditions expected to become as follows by 0200 UTC 22 September 2018
Winds: variable direction winds at 3 MPH (3 knots; 1.5 m/s)
Visibility: 6 or more miles 10+ km)
Ceiling: at least 12,000 feet AGL
Clouds: scattered clouds at 4000 feet AGL
Weather: no significant weather forecast for this period
Text: BECMG 2215/2218 20012KT
Forecast period: 1500 to 1800 UTC 22 September 2018
Forecast type: BECOMING: Conditions expected to become as follows by 1800 UTC 22 September 2018
Winds: from the SSW (200 degrees) at 14 MPH (12 knots; 6.2 m/s)
Visibility: 6 or more miles 10+ km)
Ceiling: at least 12,000 feet AGL
Clouds: scattered clouds at 4000 feet AGL
Weather: no significant weather forecast for this period